createdAt,value
2022-11-09T00:01:32.007Z,99702.81
2022-11-09T00:04:00.443Z,99697.44
2022-11-09T00:06:27.969Z,99699.09
2022-11-09T00:08:54.892Z,99710.06
2022-11-09T00:11:21.462Z,99703.44
2022-11-09T00:13:49.672Z,99698.47
2022-11-09T00:16:17.892Z,99707.16
2022-11-09T00:18:44.885Z,99699.28
2022-11-09T00:21:13.768Z,99704.28
2022-11-09T00:23:40.277Z,99707.94
2022-11-09T00:26:09.269Z,99701.31
2022-11-09T00:28:36.035Z,99697.00
2022-11-09T00:31:07.631Z,99695.94
2022-11-09T00:33:34.749Z,99699.88
2022-11-09T00:36:04.050Z,99695.13
2022-11-09T00:38:32.074Z,99687.28
2022-11-09T00:41:00.398Z,99688.09
2022-11-09T00:43:26.886Z,99688.91
2022-11-09T00:45:53.394Z,99698.44
2022-11-09T00:48:22.049Z,99699.88
2022-11-09T00:50:51.889Z,99696.34
2022-11-09T00:53:19.028Z,99681.47
2022-11-09T00:55:53.802Z,99688.13
2022-11-09T00:58:20.811Z,99699.09
2022-11-09T01:00:47.339Z,99700.13
2022-11-09T01:03:13.916Z,99684.41
2022-11-09T01:05:43.631Z,99699.13
2022-11-09T01:08:10.560Z,99702.63
2022-11-09T01:10:40.238Z,99697.25
2022-11-09T01:13:06.735Z,99704.28
2022-11-09T01:15:33.203Z,99699.31
2022-11-09T01:17:59.667Z,99708.00
2022-11-09T01:20:26.142Z,99710.47
2022-11-09T01:22:55.140Z,99712.97
2022-11-09T01:25:21.602Z,99711.09
2022-11-09T01:27:48.080Z,99701.38
2022-11-09T01:30:14.531Z,99708.41
2022-11-09T01:32:41.040Z,99706.53
2022-11-09T01:35:08.272Z,99711.91
2022-11-09T01:37:37.559Z,99717.72
2022-11-09T01:40:06.673Z,99721.03
2022-11-09T01:42:35.415Z,99718.53
2022-11-09T01:45:25.392Z,99728.47
2022-11-09T01:47:57.451Z,99720.78
2022-11-09T01:50:31.205Z,99717.47
2022-11-09T01:52:59.020Z,99711.47
2022-11-09T01:55:27.124Z,99721.19
2022-11-09T01:57:57.621Z,99719.75
2022-11-09T02:00:24.100Z,99724.50
2022-11-09T02:02:53.332Z,99716.69
2022-11-09T02:05:24.846Z,99711.69
2022-11-09T02:07:54.082Z,99697.81
2022-11-09T02:10:26.744Z,99692.25
2022-11-09T02:12:58.399Z,99707.53
2022-11-09T02:15:25.667Z,99705.88
2022-11-09T02:17:54.351Z,99704.22
2022-11-09T02:20:23.972Z,99703.59
2022-11-09T02:22:51.509Z,99700.91
2022-11-09T02:25:18.234Z,99704.00
2022-11-09T02:27:45.811Z,99701.13
2022-11-09T02:30:14.787Z,99711.88
2022-11-09T02:32:41.583Z,99702.75
2022-11-09T02:35:09.419Z,99703.59
2022-11-09T02:37:40.739Z,99707.72
2022-11-09T02:40:14.259Z,99717.66
2022-11-09T02:42:40.783Z,99706.28
2022-11-09T02:45:08.791Z,99713.34
2022-11-09T02:47:35.917Z,99709.16
2022-11-09T02:50:02.583Z,99713.31
2022-11-09T02:52:29.201Z,99715.38
2022-11-09T02:54:57.579Z,99702.13
2022-11-09T02:57:24.107Z,99712.47
2022-11-09T02:59:51.149Z,99700.50
2022-11-09T03:02:17.752Z,99712.69
2022-11-09T03:04:44.339Z,99704.59
2022-11-09T03:07:11.380Z,99707.13
2022-11-09T03:09:39.087Z,99719.09
2022-11-09T03:12:07.988Z,99720.53
2022-11-09T03:14:34.633Z,99713.69
2022-11-09T03:17:01.187Z,99707.06
2022-11-09T03:19:27.792Z,99707.06
2022-11-09T03:21:54.236Z,99715.75
2022-11-09T03:24:23.253Z,99710.38
2022-11-09T03:26:52.300Z,99714.09
2022-11-09T03:29:20.356Z,99715.53
2022-11-09T03:31:47.240Z,99710.56
2022-11-09T03:34:13.876Z,99710.34
2022-11-09T03:36:40.372Z,99718.84
2022-11-09T03:39:06.916Z,99726.72
2022-11-09T03:41:33.549Z,99717.63
2022-11-09T03:44:00.935Z,99714.94
2022-11-09T03:46:28.765Z,99720.50
2022-11-09T03:48:55.229Z,99710.78
2022-11-09T03:51:21.777Z,99724.66
2022-11-09T03:53:48.232Z,99734.34
2022-11-09T03:56:15.039Z,99730.22
2022-11-09T03:58:41.563Z,99739.72
2022-11-09T04:01:08.035Z,99748.03
2022-11-09T04:03:35.974Z,99751.34
2022-11-09T04:06:02.416Z,99756.94
2022-11-09T04:08:28.991Z,99745.97
2022-11-09T04:10:55.479Z,99747.22
2022-11-09T04:13:22.226Z,99748.44
2022-11-09T04:15:48.867Z,99753.44
2022-11-09T04:18:17.051Z,99755.69
2022-11-09T04:20:44.882Z,99748.69
2022-11-09T04:23:13.058Z,99756.75
2022-11-09T04:25:41.228Z,99736.44
2022-11-09T04:28:10.820Z,99746.63
2022-11-09T04:30:37.356Z,99737.91
2022-11-09T04:33:04.567Z,99748.66
2022-11-09T04:35:33.412Z,99743.69
2022-11-09T04:38:03.032Z,99736.88
2022-11-09T04:40:31.476Z,99747.19
2022-11-09T04:42:59.152Z,99749.72
2022-11-09T04:45:25.629Z,99754.88
2022-11-09T04:47:56.493Z,99750.72
2022-11-09T04:50:23.043Z,99749.47
2022-11-09T04:52:51.473Z,99754.25
2022-11-09T04:55:19.335Z,99760.88
2022-11-09T04:57:45.818Z,99759.19
2022-11-09T05:00:13.025Z,99754.69
2022-11-09T05:02:39.520Z,99746.63
2022-11-09T05:05:07.124Z,99762.13
2022-11-09T05:07:33.576Z,99762.13
2022-11-09T05:10:00.126Z,99753.25
2022-11-09T05:12:28.041Z,99762.53
2022-11-09T05:14:54.514Z,99739.78
2022-11-09T05:17:21.241Z,99766.03
2022-11-09T05:19:48.855Z,99758.38
2022-11-09T05:22:16.859Z,99759.19
2022-11-09T05:24:43.313Z,99756.72
2022-11-09T05:27:09.709Z,99755.91
2022-11-09T05:29:37.544Z,99758.38
2022-11-09T05:32:04.405Z,99752.16
2022-11-09T05:34:30.825Z,99757.75
2022-11-09T05:37:03.175Z,99752.38
2022-11-09T05:39:30.097Z,99753.63
2022-11-09T05:41:56.578Z,99762.94
2022-11-09T05:44:23.137Z,99770.78
2022-11-09T05:46:51.125Z,99774.72
2022-11-09T05:49:17.580Z,99769.09
2022-11-09T05:51:44.059Z,99787.25
2022-11-09T05:54:10.870Z,99772.91
2022-11-09T05:56:37.340Z,99791.88
2022-11-09T05:59:03.828Z,99793.22
2022-11-09T06:01:30.308Z,99791.34
2022-11-09T06:03:58.164Z,99777.22
2022-11-09T06:06:24.613Z,99775.50
2022-11-09T06:08:51.541Z,99785.59
2022-11-09T06:11:23.664Z,99770.91
2022-11-09T06:13:51.282Z,99780.16
2022-11-09T06:16:17.763Z,99771.06
2022-11-09T06:18:44.212Z,99769.09
2022-11-09T06:21:12.099Z,99772.81
2022-11-09T06:23:38.859Z,99772.56
2022-11-09T06:26:08.114Z,99764.28
2022-11-09T06:28:34.860Z,99765.88
2022-11-09T06:31:03.503Z,99762.13
2022-11-09T06:33:30.944Z,99769.50
2022-11-09T06:35:58.276Z,99775.72
2022-11-09T06:38:26.723Z,99764.97
2022-11-09T06:40:53.770Z,99776.13
2022-11-09T06:43:21.076Z,99776.66
2022-11-09T06:45:47.823Z,99781.88
2022-11-09T06:48:14.739Z,99762.56
2022-11-09T06:50:41.421Z,99791.75
2022-11-09T06:53:10.507Z,99794.09
2022-11-09T06:55:38.395Z,99808.78
2022-11-09T06:58:06.012Z,99804.25
2022-11-09T07:00:32.688Z,99798.88
2022-11-09T07:02:59.177Z,99803.63
2022-11-09T07:05:25.723Z,99805.03
2022-11-09T07:07:52.160Z,99807.50
2022-11-09T07:10:18.860Z,99810.84
2022-11-09T07:12:47.050Z,99811.28
2022-11-09T07:15:13.706Z,99818.31
2022-11-09T07:17:40.556Z,99811.75
2022-11-09T07:20:08.204Z,99811.28
2022-11-09T07:22:34.664Z,99822.53
2022-11-09T07:25:01.129Z,99819.25
2022-11-09T07:27:28.465Z,99831.06
2022-11-09T07:29:56.397Z,99830.13
2022-11-09T07:32:35.488Z,99838.88
2022-11-09T07:35:09.921Z,99839.56
2022-11-09T07:37:36.912Z,99834.78
2022-11-09T07:40:03.984Z,99842.25
2022-11-09T07:42:30.459Z,99840.66
2022-11-09T07:44:58.284Z,99845.97
2022-11-09T07:47:24.736Z,99841.25
2022-11-09T07:49:51.236Z,99845.69
2022-11-09T07:52:17.730Z,99832.06
2022-11-09T07:54:48.223Z,99850.44
2022-11-09T07:57:17.575Z,99851.41
2022-11-09T07:59:44.156Z,99832.53
2022-11-09T08:02:12.102Z,99841.47
2022-11-09T08:04:39.195Z,99857.88
2022-11-09T08:07:05.812Z,99858.69
2022-11-09T08:09:32.366Z,99858.91
2022-11-09T08:11:58.922Z,99844.69
2022-11-09T08:14:25.441Z,99855.63
2022-11-09T08:16:51.930Z,99856.97
2022-11-09T08:19:19.779Z,99860.16
2022-11-09T08:21:46.278Z,99854.66
2022-11-09T08:24:12.889Z,99863.69
2022-11-09T08:26:39.487Z,99865.16
2022-11-09T08:29:05.975Z,99847.94
2022-11-09T08:31:32.435Z,99865.00
2022-11-09T08:33:58.915Z,99867.13
2022-11-09T08:36:26.764Z,99867.63
2022-11-09T08:38:53.294Z,99872.56
2022-11-09T08:41:19.819Z,99871.94
2022-11-09T08:43:46.258Z,99855.03
2022-11-09T08:46:12.747Z,99874.03
2022-11-09T08:48:39.256Z,99889.47
2022-11-09T08:51:06.146Z,99884.59
2022-11-09T08:53:34.011Z,99878.56
2022-11-09T08:56:00.459Z,99883.56
2022-11-09T08:58:27.009Z,99876.56
2022-11-09T09:00:53.492Z,99881.28
2022-11-09T09:03:20.068Z,99878.53
2022-11-09T09:05:46.550Z,99885.53
2022-11-09T09:08:13.521Z,99890.16
2022-11-09T09:10:41.451Z,99899.47
2022-11-09T09:13:08.015Z,99899.78
2022-11-09T09:15:34.488Z,99884.44
2022-11-09T09:18:01.303Z,99890.44
2022-11-09T09:20:28.014Z,99893.13
2022-11-09T09:22:54.527Z,99897.41
2022-11-09T09:25:21.011Z,99898.28
2022-11-09T09:27:48.770Z,99893.59
2022-11-09T09:30:15.311Z,99892.13
2022-11-09T09:32:41.787Z,99902.09
2022-11-09T09:35:09.370Z,99906.94
2022-11-09T09:37:35.946Z,99900.03
2022-11-09T09:40:02.471Z,99903.25
2022-11-09T09:42:33.345Z,99897.41
2022-11-09T09:45:04.408Z,99905.97
2022-11-09T09:47:44.461Z,99917.03
2022-11-09T09:50:15.814Z,99928.72
2022-11-09T09:53:04.594Z,99935.84
2022-11-09T09:55:37.209Z,99934.69
2022-11-09T09:58:09.984Z,99945.94
2022-11-09T10:00:39.209Z,99943.53
2022-11-09T10:03:06.357Z,99951.91
2022-11-09T10:05:51.306Z,99934.44
2022-11-09T10:08:41.651Z,99948.59
2022-11-09T10:11:16.895Z,99955.22
2022-11-09T10:14:09.562Z,99958.56
2022-11-09T10:16:47.683Z,99958.41
2022-11-09T10:19:28.565Z,99956.53
2022-11-09T10:22:02.042Z,99955.56
2022-11-09T10:24:48.533Z,99947.00
2022-11-09T10:27:27.679Z,99956.00
2022-11-09T10:29:54.854Z,99957.75
2022-11-09T10:32:24.094Z,99941.50
2022-11-09T10:34:54.760Z,99956.13
2022-11-09T10:37:27.418Z,99963.47
2022-11-09T10:40:00.522Z,99965.69
2022-11-09T10:42:49.056Z,99964.22
2022-11-09T10:45:36.031Z,99947.88
2022-11-09T10:48:31.663Z,99971.13
2022-11-09T10:51:35.166Z,99961.19
2022-11-09T10:54:21.943Z,99960.94
2022-11-09T10:57:14.798Z,99972.28
2022-11-09T11:00:00.395Z,99960.03
2022-11-09T11:02:47.233Z,99974.97
2022-11-09T11:05:34.229Z,99977.25
2022-11-09T11:08:28.954Z,99963.59
2022-11-09T11:11:38.860Z,99951.69
2022-11-09T11:14:31.424Z,99960.94
2022-11-09T11:17:25.312Z,99960.88
2022-11-09T11:20:28.445Z,99961.91
2022-11-09T11:23:17.618Z,99973.78
2022-11-09T11:26:16.161Z,99977.13
2022-11-09T11:29:08.852Z,99947.91
2022-11-09T11:31:54.230Z,99965.94
2022-11-09T11:34:58.981Z,99970.94
2022-11-09T11:37:53.810Z,99962.03
2022-11-09T11:40:47.397Z,99975.53
2022-11-09T11:43:43.818Z,99975.53
2022-11-09T11:46:40.740Z,99979.50
2022-11-09T11:50:05.894Z,99976.75
2022-11-09T11:53:03.770Z,99977.63
2022-11-09T11:56:05.667Z,99984.69
2022-11-09T11:59:11.248Z,99983.63
2022-11-09T12:02:20.192Z,99987.38
2022-11-09T12:05:30.054Z,99985.50
2022-11-09T12:08:22.776Z,99985.50
2022-11-09T12:11:19.371Z,99986.78
2022-11-09T12:14:13.130Z,99990.72
2022-11-09T12:17:04.294Z,99984.47
2022-11-09T12:20:14.566Z,99990.94
2022-11-09T12:23:13.023Z,99972.06
2022-11-09T12:26:15.513Z,99980.59
2022-11-09T12:29:13.130Z,99981.84
2022-11-09T12:32:22.782Z,99969.38
2022-11-09T12:35:30.340Z,99988.47
2022-11-09T12:38:19.901Z,99995.91
2022-11-09T12:41:09.934Z,99998.84
2022-11-09T12:44:00.717Z,99999.25
2022-11-09T12:46:51.778Z,99985.94
2022-11-09T12:49:39.239Z,99987.63
2022-11-09T12:52:28.045Z,99998.22
2022-11-09T12:55:14.560Z,100002.56
2022-11-09T12:58:01.163Z,100002.97
2022-11-09T13:00:52.854Z,99998.78
2022-11-09T13:03:52.166Z,100005.44
2022-11-09T13:06:37.420Z,100004.59
2022-11-09T13:09:24.813Z,99997.75
2022-11-09T13:12:19.045Z,99994.22
2022-11-09T13:15:23.171Z,99995.03
2022-11-09T13:18:24.291Z,100001.91
2022-11-09T13:21:39.910Z,100013.47
2022-11-09T13:24:52.985Z,100005.56
2022-11-09T13:27:44.285Z,100016.78
2022-11-09T13:30:50.383Z,100021.13
2022-11-09T13:33:35.753Z,100007.69
2022-11-09T13:36:21.032Z,100028.59
2022-11-09T13:39:30.985Z,100022.59
2022-11-09T13:42:35.753Z,100020.72
2022-11-09T13:45:29.868Z,100021.34
2022-11-09T13:48:41.487Z,100023.81
2022-11-09T13:51:43.097Z,100032.28
2022-11-09T13:54:31.054Z,100022.34
2022-11-09T13:57:16.295Z,100025.69
2022-11-09T14:00:03.121Z,100017.56
2022-11-09T14:02:56.858Z,100014.88
2022-11-09T14:05:44.061Z,100031.69
2022-11-09T14:08:37.472Z,100025.28
2022-11-09T14:11:42.287Z,100029.22
2022-11-09T14:14:59.925Z,100020.31
2022-11-09T14:17:57.394Z,100023.44
2022-11-09T14:20:53.581Z,100030.66
2022-11-09T14:23:38.750Z,100031.50
2022-11-09T14:26:25.218Z,100036.84
2022-11-09T14:29:20.574Z,100045.56
2022-11-09T14:32:23.301Z,100041.19
2022-11-09T14:35:19.944Z,100045.75
2022-11-09T14:38:16.019Z,100059.19
2022-11-09T14:41:02.173Z,100035.09
2022-11-09T14:43:49.282Z,100060.44
2022-11-09T14:46:35.630Z,100055.41
2022-11-09T14:49:22.025Z,100068.03
2022-11-09T14:52:12.618Z,100065.31
2022-11-09T14:54:58.559Z,100064.09
2022-11-09T14:57:47.166Z,100072.94
2022-11-09T15:00:34.801Z,100082.72
2022-11-09T15:03:27.662Z,100090.13
2022-11-09T15:06:15.787Z,100093.44
2022-11-09T15:09:04.600Z,100090.09
2022-11-09T15:14:36.149Z,100098.34
2022-11-09T15:17:25.581Z,100104.72
2022-11-09T15:20:27.203Z,100106.53
2022-11-09T15:23:22.878Z,100111.22
2022-11-09T15:26:24.893Z,100106.81
2022-11-09T15:29:43.585Z,100116.84
2022-11-09T15:32:33.582Z,100119.94
2022-11-09T15:35:19.586Z,100121.16
2022-11-09T15:38:06.317Z,100130.22
2022-11-09T15:40:51.558Z,100127.69
2022-11-09T15:43:37.177Z,100128.88
2022-11-09T15:46:24.594Z,100132.97
2022-11-09T15:49:16.724Z,100132.31
2022-11-09T15:52:02.909Z,100139.03
2022-11-09T15:54:49.377Z,100145.38
2022-11-09T15:57:34.545Z,100151.13
2022-11-09T16:00:22.164Z,100153.56
2022-11-09T16:03:07.605Z,100152.53
2022-11-09T16:05:52.546Z,100165.50
2022-11-09T16:08:37.690Z,100164.44
2022-11-09T16:11:24.390Z,100171.00
2022-11-09T16:14:09.610Z,100173.88
2022-11-09T16:16:54.494Z,100183.53
2022-11-09T16:19:39.521Z,100179.34
2022-11-09T16:22:29.497Z,100189.47
2022-11-09T16:25:18.087Z,100190.28
2022-11-09T16:28:04.928Z,100188.28
2022-11-09T16:30:49.959Z,100195.41
2022-11-09T16:33:36.105Z,100204.41
2022-11-09T16:36:24.177Z,100213.00
2022-11-09T16:39:11.398Z,100212.72
2022-11-09T16:41:56.443Z,100226.03
2022-11-09T16:44:45.161Z,100219.56
2022-11-09T16:47:30.773Z,100221.94
2022-11-09T16:50:16.134Z,100226.00
2022-11-09T16:53:01.131Z,100227.69
2022-11-09T16:55:46.358Z,100233.50
2022-11-09T16:58:31.783Z,100233.69
2022-11-09T17:01:22.236Z,100242.75
2022-11-09T17:04:08.833Z,100236.09
2022-11-09T17:06:54.024Z,100246.00
2022-11-09T17:09:39.346Z,100250.50
2022-11-09T17:12:24.628Z,100255.88
2022-11-09T17:15:10.754Z,100253.31
2022-11-09T17:17:57.043Z,100259.50
2022-11-09T17:20:43.143Z,100254.97
2022-11-09T17:23:28.130Z,100259.13
2022-11-09T17:26:13.530Z,100269.81
2022-11-09T17:28:58.515Z,100269.31
2022-11-09T17:31:43.466Z,100287.41
2022-11-09T17:34:30.150Z,100296.78
2022-11-09T17:37:15.383Z,100308.34
2022-11-09T17:40:02.562Z,100306.00
2022-11-09T17:42:47.912Z,100308.06
2022-11-09T17:45:35.047Z,100312.25
2022-11-09T17:48:20.041Z,100299.13
2022-11-09T17:51:07.337Z,100307.34
2022-11-09T17:53:52.818Z,100311.44
2022-11-09T17:56:37.933Z,100323.91
2022-11-09T17:59:23.203Z,100322.97
2022-11-09T18:02:09.646Z,100332.09
2022-11-09T18:04:54.710Z,100338.28
2022-11-09T18:07:41.171Z,100341.47
2022-11-09T18:10:26.422Z,100348.56
2022-11-09T18:13:11.498Z,100349.56
2022-11-09T18:15:56.823Z,100357.16
2022-11-09T18:18:42.810Z,100365.75
2022-11-09T18:21:31.934Z,100366.44
2022-11-09T18:24:18.698Z,100370.16
2022-11-09T18:27:03.759Z,100374.47
2022-11-09T18:29:48.998Z,100381.22
2022-11-09T18:32:34.062Z,100385.41
2022-11-09T18:35:19.077Z,100384.06
2022-11-09T18:38:04.195Z,100395.66
2022-11-09T18:40:58.655Z,100390.56
2022-11-09T18:43:43.938Z,100401.00
2022-11-09T18:46:34.019Z,100397.31
2022-11-09T18:49:19.086Z,100401.31
2022-11-09T18:52:04.817Z,100406.47
2022-11-09T18:54:49.665Z,100400.16
2022-11-09T18:57:35.921Z,100420.06
2022-11-09T19:00:21.384Z,100416.72
2022-11-09T19:03:06.772Z,100415.53
2022-11-09T19:05:52.124Z,100428.31
2022-11-09T19:08:37.589Z,100429.00
2022-11-09T19:11:22.960Z,100428.66
2022-11-09T19:14:10.498Z,100427.84
2022-11-09T19:16:56.090Z,100437.88
2022-11-09T19:19:42.001Z,100435.53
2022-11-09T19:22:27.840Z,100436.22
2022-11-09T19:25:13.007Z,100441.94
2022-11-09T19:27:57.913Z,100451.63
2022-11-09T19:30:44.533Z,100447.09
2022-11-09T19:33:29.963Z,100437.94
2022-11-09T19:36:29.585Z,100449.97
2022-11-09T19:39:16.301Z,100453.84
2022-11-09T19:42:01.637Z,100453.19
2022-11-09T19:44:48.912Z,100451.34
2022-11-09T19:47:38.591Z,100458.91
2022-11-09T19:50:23.651Z,100459.72
2022-11-09T19:53:08.634Z,100455.06
2022-11-09T19:55:58.070Z,100467.97
2022-11-09T19:58:43.754Z,100466.16
2022-11-09T20:01:29.201Z,100470.50
2022-11-09T20:04:15.443Z,100478.84
2022-11-09T20:07:00.640Z,100492.97
2022-11-09T20:09:45.801Z,100489.94
2022-11-09T20:12:30.955Z,100501.00
2022-11-09T20:15:16.260Z,100510.06
2022-11-09T20:18:01.335Z,100506.75
2022-11-09T20:20:47.978Z,100513.91
2022-11-09T20:23:33.342Z,100527.50
2022-11-09T20:26:18.569Z,100530.38
2022-11-09T20:29:03.878Z,100534.38
2022-11-09T20:31:48.911Z,100541.41
2022-11-09T20:34:34.414Z,100543.75
2022-11-09T20:37:20.791Z,100550.97
2022-11-09T20:40:06.460Z,100554.00
2022-11-09T20:42:51.608Z,100556.66
2022-11-09T20:45:36.744Z,100571.38
2022-11-09T20:48:51.627Z,100561.81
2022-11-09T20:51:27.290Z,100572.53
2022-11-09T20:54:13.460Z,100576.06
2022-11-09T20:56:58.843Z,100571.34
2022-11-09T20:59:43.992Z,100588.13
2022-11-09T21:02:28.959Z,100586.59
2022-11-09T21:05:14.479Z,100585.44
2022-11-09T21:08:00.059Z,100592.28
2022-11-09T21:10:46.668Z,100592.97
2022-11-09T21:13:32.481Z,100588.78
2022-11-09T21:16:19.112Z,100598.00
2022-11-09T21:19:04.196Z,100597.28
2022-11-09T21:21:49.050Z,100599.97
2022-11-09T21:24:34.064Z,100616.41
2022-11-09T21:27:20.633Z,100617.91
2022-11-09T21:30:06.590Z,100614.22
2022-11-09T21:32:51.565Z,100615.25
2022-11-09T21:35:36.624Z,100611.41
2022-11-09T21:38:22.196Z,100614.09
2022-11-09T21:41:08.801Z,100610.59
2022-11-09T21:43:55.892Z,100618.31
2022-11-09T21:46:42.369Z,100625.50
2022-11-09T21:49:28.329Z,100633.22
2022-11-09T21:52:13.096Z,100633.53
2022-11-09T21:54:58.009Z,100632.06
2022-11-09T21:57:42.993Z,100638.06
2022-11-09T22:00:29.901Z,100632.06
2022-11-09T22:03:14.991Z,100634.72
2022-11-09T22:06:00.352Z,100642.41
2022-11-09T22:08:45.608Z,100644.28
2022-11-09T22:11:30.956Z,100643.44
2022-11-09T22:14:18.474Z,100636.03
2022-11-09T22:17:06.457Z,100634.88
2022-11-09T22:19:51.669Z,100642.28
2022-11-09T22:22:36.692Z,100638.56
2022-11-09T22:25:21.498Z,100642.09
2022-11-09T22:28:06.582Z,100648.78
2022-11-09T22:30:51.686Z,100651.28
2022-11-09T22:33:38.297Z,100652.13
2022-11-09T22:36:23.419Z,100660.16
2022-11-09T22:39:08.681Z,100654.13
2022-11-09T22:41:53.949Z,100656.16
2022-11-09T22:44:39.003Z,100655.81
2022-11-09T22:47:23.958Z,100654.81
2022-11-09T22:50:10.508Z,100631.03
2022-11-09T22:52:57.384Z,100660.16
2022-11-09T22:55:52.052Z,100670.50
2022-11-09T22:58:37.128Z,100658.97
2022-11-09T23:01:22.520Z,100673.38
2022-11-09T23:04:08.717Z,100676.22
2022-11-09T23:06:55.351Z,100675.22
2022-11-09T23:09:40.488Z,100685.75
2022-11-09T23:12:25.805Z,100683.56
2022-11-09T23:15:10.845Z,100685.75
2022-11-09T23:17:57.768Z,100694.28
2022-11-09T23:20:43.542Z,100694.28
2022-11-09T23:23:29.912Z,100695.78
2022-11-09T23:26:15.185Z,100692.59
2022-11-09T23:29:00.243Z,100710.66
2022-11-09T23:31:45.481Z,100706.00
2022-11-09T23:34:30.401Z,100706.00
2022-11-09T23:37:15.246Z,100714.53
2022-11-09T23:40:01.717Z,100716.53
2022-11-09T23:42:46.358Z,100726.41
2022-11-09T23:45:33.320Z,100732.56
2022-11-09T23:48:19.245Z,100736.91
2022-11-09T23:51:05.362Z,100736.09
2022-11-09T23:53:50.654Z,100745.13
2022-11-09T23:56:37.066Z,100752.16
2022-11-09T23:59:22.297Z,100757.19
